createdAt,value
2023-05-03T00:01:42.966Z,102037.69
2023-05-03T00:04:09.543Z,102030.63
2023-05-03T00:06:36.008Z,102023.56
2023-05-03T00:09:03.561Z,102028.94
2023-05-03T00:11:30.111Z,102031.84
2023-05-03T00:13:56.603Z,102036.44
2023-05-03T00:16:23.470Z,102028.53
2023-05-03T00:18:49.926Z,102031.25
2023-05-03T00:21:16.313Z,102029.59
2023-05-03T00:23:42.805Z,102026.91
2023-05-03T00:26:09.900Z,102032.50
2023-05-03T00:28:36.478Z,102040.59
2023-05-03T00:31:03.009Z,102025.66
2023-05-03T00:33:29.349Z,102028.34
2023-05-03T00:35:55.745Z,102039.94
2023-05-03T00:38:22.423Z,102032.09
2023-05-03T00:40:48.809Z,102033.94
2023-05-03T00:43:15.433Z,102036.00
2023-05-03T00:45:42.079Z,102033.31
2023-05-03T00:48:08.408Z,102033.56
2023-05-03T00:50:34.797Z,102037.06
2023-05-03T00:53:01.126Z,102036.25
2023-05-03T00:55:27.495Z,102047.25
2023-05-03T00:57:53.941Z,102032.91
2023-05-03T01:00:20.328Z,102032.91
2023-05-03T01:02:47.286Z,102028.56
2023-05-03T01:05:13.766Z,102027.72
2023-05-03T01:07:40.480Z,102028.78
2023-05-03T01:10:06.911Z,102024.41
2023-05-03T01:12:33.697Z,102024.41
2023-05-03T01:15:00.476Z,102028.97
2023-05-03T01:17:27.417Z,102028.16
2023-05-03T01:19:53.982Z,102028.16
2023-05-03T01:22:20.803Z,102028.38
2023-05-03T01:24:47.832Z,102036.47
2023-05-03T01:27:14.769Z,102034.78
2023-05-03T01:29:44.570Z,102036.66
2023-05-03T01:32:13.490Z,102035.00
2023-05-03T01:34:42.242Z,102034.16
2023-05-03T01:37:08.741Z,102037.69
2023-05-03T01:39:35.491Z,102040.59
2023-05-03T01:42:02.005Z,102030.88
2023-05-03T01:44:28.511Z,102020.88
2023-05-03T01:46:55.025Z,102030.88
2023-05-03T01:49:21.377Z,102034.38
2023-05-03T01:51:48.056Z,102033.56
2023-05-03T01:54:14.553Z,102028.38
2023-05-03T01:56:40.916Z,102025.66
2023-05-03T01:59:07.261Z,102024.84
2023-05-03T02:01:33.963Z,102026.91
2023-05-03T02:04:00.436Z,102029.63
2023-05-03T02:06:27.758Z,102020.69
2023-05-03T02:08:54.461Z,102027.53
2023-05-03T02:11:20.883Z,102030.22
2023-05-03T02:13:49.020Z,102025.03
2023-05-03T02:16:15.437Z,102035.00
2023-05-03T02:18:41.927Z,102026.91
2023-05-03T02:21:08.511Z,102030.44
2023-05-03T02:23:35.445Z,102028.78
2023-05-03T02:26:03.465Z,102035.00
2023-05-03T02:28:31.398Z,102031.47
2023-05-03T02:30:57.873Z,102032.31
2023-05-03T02:33:25.767Z,102027.94
2023-05-03T02:35:52.167Z,102028.78
2023-05-03T02:38:18.683Z,102036.88
2023-05-03T02:40:45.602Z,102026.09
2023-05-03T02:43:12.295Z,102019.84
2023-05-03T02:45:39.051Z,102025.44
2023-05-03T02:48:05.380Z,102029.19
2023-05-03T02:50:31.840Z,102029.81
2023-05-03T02:52:58.265Z,102029.19
2023-05-03T02:55:27.197Z,102031.88
2023-05-03T02:57:53.831Z,102044.31
2023-05-03T03:00:20.269Z,102040.41
2023-05-03T03:02:46.719Z,102047.25
2023-05-03T03:05:13.135Z,102050.16
2023-05-03T03:07:39.628Z,102058.22
2023-05-03T03:10:06.032Z,102055.72
2023-05-03T03:12:32.320Z,102056.56
2023-05-03T03:14:58.824Z,102050.94
2023-05-03T03:17:25.196Z,102056.56
2023-05-03T03:19:51.596Z,102053.03
2023-05-03T03:22:18.228Z,102056.97
2023-05-03T03:24:44.814Z,102062.16
2023-05-03T03:27:11.275Z,102066.53
2023-05-03T03:29:37.645Z,102070.06
2023-05-03T03:32:04.404Z,102077.91
2023-05-03T03:34:30.944Z,102073.56
2023-05-03T03:36:57.307Z,102084.34
2023-05-03T03:39:23.631Z,102076.06
2023-05-03T03:41:51.554Z,102080.19
2023-05-03T03:44:19.235Z,102087.44
2023-05-03T03:46:45.859Z,102082.28
2023-05-03T03:49:12.346Z,102082.88
2023-05-03T03:51:38.746Z,102082.88
2023-05-03T03:54:07.388Z,102079.34
2023-05-03T03:56:33.786Z,102090.78
2023-05-03T03:59:00.789Z,102090.56
2023-05-03T04:01:27.200Z,102098.03
2023-05-03T04:03:53.737Z,102101.75
2023-05-03T04:06:20.652Z,102093.66
2023-05-03T04:08:47.255Z,102105.69
2023-05-03T04:11:13.655Z,102114.63
2023-05-03T04:13:40.006Z,102110.03
2023-05-03T04:16:06.529Z,102117.31
2023-05-03T04:18:32.851Z,102117.50
2023-05-03T04:20:59.400Z,102125.41
2023-05-03T04:23:25.810Z,102125.81
2023-05-03T04:25:52.191Z,102127.47
2023-05-03T04:28:18.529Z,102128.28
2023-05-03T04:30:45.303Z,102130.75
2023-05-03T04:33:11.958Z,102136.13
2023-05-03T04:35:38.513Z,102132.84
2023-05-03T04:38:05.055Z,102134.69
2023-05-03T04:40:31.583Z,102138.22
2023-05-03T04:42:57.968Z,102140.31
2023-05-03T04:45:24.706Z,102149.84
2023-05-03T04:47:51.374Z,102144.63
2023-05-03T04:50:17.900Z,102149.84
2023-05-03T04:52:44.297Z,102150.47
2023-05-03T04:55:10.793Z,102150.03
2023-05-03T04:57:37.133Z,102154.59
2023-05-03T05:00:04.545Z,102156.22
2023-05-03T05:02:31.180Z,102155.44
2023-05-03T05:04:57.772Z,102155.84
2023-05-03T05:07:24.154Z,102158.69
2023-05-03T05:09:50.468Z,102158.31
2023-05-03T05:12:16.808Z,102161.63
2023-05-03T05:14:43.333Z,102162.41
2023-05-03T05:17:09.815Z,102160.75
2023-05-03T05:19:36.266Z,102170.97
2023-05-03T05:22:03.045Z,102167.84
2023-05-03T05:24:29.587Z,102171.53
2023-05-03T05:26:55.968Z,102170.28
2023-05-03T05:29:22.517Z,102174.84
2023-05-03T05:31:48.928Z,102176.91
2023-05-03T05:34:15.396Z,102173.97
2023-05-03T05:36:43.965Z,102183.06
2023-05-03T05:39:10.301Z,102180.56
2023-05-03T05:41:36.699Z,102173.75
2023-05-03T05:44:03.079Z,102174.19
2023-05-03T05:46:29.460Z,102179.78
2023-05-03T05:48:55.961Z,102189.69
2023-05-03T05:51:22.243Z,102184.13
2023-05-03T05:53:48.888Z,102191.19
2023-05-03T05:56:15.196Z,102176.91
2023-05-03T05:58:41.710Z,102184.34
2023-05-03T06:01:08.774Z,102184.78
2023-05-03T06:03:35.278Z,102186.44
2023-05-03T06:06:01.712Z,102180.00
2023-05-03T06:08:28.520Z,102187.91
2023-05-03T06:10:55.072Z,102197.00
2023-05-03T06:13:21.554Z,102192.88
2023-05-03T06:15:47.857Z,102195.34
2023-05-03T06:18:14.717Z,102198.03
2023-05-03T06:20:41.390Z,102194.53
2023-05-03T06:23:07.806Z,102197.41
2023-05-03T06:25:34.457Z,102190.38
2023-05-03T06:28:00.853Z,102192.22
2023-05-03T06:30:27.981Z,102193.88
2023-05-03T06:33:00.735Z,102198.44
2023-05-03T06:35:27.379Z,102203.00
2023-05-03T06:37:53.767Z,102203.00
2023-05-03T06:40:20.340Z,102211.06
2023-05-03T06:42:46.977Z,102212.50
2023-05-03T06:45:13.690Z,102212.13
2023-05-03T06:47:40.438Z,102214.63
2023-05-03T06:50:07.363Z,102220.41
2023-05-03T06:52:33.826Z,102213.97
2023-05-03T06:55:00.353Z,102224.94
2023-05-03T06:57:28.783Z,102216.84
2023-05-03T06:59:55.405Z,102214.38
2023-05-03T07:02:22.000Z,102219.56
2023-05-03T07:04:48.415Z,102217.91
2023-05-03T07:07:14.885Z,102220.59
2023-05-03T07:09:43.548Z,102217.25
2023-05-03T07:12:10.547Z,102221.41
2023-05-03T07:14:37.002Z,102217.88
2023-05-03T07:17:03.392Z,102223.91
2023-05-03T07:19:29.698Z,102218.28
2023-05-03T07:21:56.491Z,102219.31
2023-05-03T07:24:22.902Z,102220.75
2023-05-03T07:26:49.706Z,102220.97
2023-05-03T07:29:16.453Z,102222.88
2023-05-03T07:31:43.495Z,102218.28
2023-05-03T07:34:09.892Z,102218.72
2023-05-03T07:36:36.182Z,102216.63
2023-05-03T07:39:02.535Z,102217.47
2023-05-03T07:41:29.654Z,102213.94
2023-05-03T07:43:56.175Z,102216.81
2023-05-03T07:46:22.904Z,102219.53
2023-05-03T07:48:49.478Z,102224.09
2023-05-03T07:51:16.067Z,102215.16
2023-05-03T07:53:45.151Z,102220.56
2023-05-03T07:56:11.758Z,102208.94
2023-05-03T07:58:40.417Z,102211.63
2023-05-03T08:01:07.082Z,102214.56
2023-05-03T08:03:33.749Z,102213.72
2023-05-03T08:06:00.410Z,102212.25
2023-05-03T08:08:27.202Z,102220.13
2023-05-03T08:10:54.058Z,102207.72
2023-05-03T08:13:20.476Z,102212.25
2023-05-03T08:15:46.823Z,102204.38
2023-05-03T08:18:13.378Z,102207.91
2023-05-03T08:20:39.863Z,102218.69
2023-05-03T08:23:06.412Z,102209.75
2023-05-03T08:25:32.937Z,102206.22
2023-05-03T08:27:59.569Z,102204.56
2023-05-03T08:30:26.086Z,102205.41
2023-05-03T08:32:53.193Z,102201.06
2023-05-03T08:35:19.883Z,102210.97
2023-05-03T08:37:46.245Z,102209.13
2023-05-03T08:40:12.605Z,102214.53
2023-05-03T08:42:38.985Z,102212.63
2023-05-03T08:45:05.316Z,102213.47
2023-05-03T08:47:32.263Z,102218.88
2023-05-03T08:49:58.695Z,102218.22
2023-05-03T08:52:25.210Z,102217.22
2023-05-03T08:54:51.515Z,102217.22
2023-05-03T08:57:18.061Z,102209.13
2023-05-03T08:59:44.622Z,102217.22
2023-05-03T09:02:11.084Z,102213.88
2023-05-03T09:04:37.923Z,102213.88
2023-05-03T09:07:04.436Z,102206.63
2023-05-03T09:09:30.736Z,102218.44
2023-05-03T09:11:57.310Z,102214.91
2023-05-03T09:14:23.850Z,102214.91
2023-05-03T09:16:50.355Z,102215.09
2023-05-03T09:19:16.751Z,102212.41
2023-05-03T09:21:43.138Z,102211.56
2023-05-03T09:24:09.800Z,102210.75
2023-05-03T09:26:37.609Z,102211.56
2023-05-03T09:29:06.410Z,102214.25
2023-05-03T09:31:33.069Z,102215.09
2023-05-03T09:33:59.770Z,102216.94
2023-05-03T09:36:26.221Z,102208.06
2023-05-03T09:38:52.718Z,102212.59
2023-05-03T09:41:19.109Z,102213.63
2023-05-03T09:43:47.259Z,102218.38
2023-05-03T09:46:13.904Z,102213.00
2023-05-03T09:48:40.368Z,102207.59
2023-05-03T09:51:06.975Z,102211.53
2023-05-03T09:53:33.710Z,102207.00
2023-05-03T09:56:00.132Z,102204.91
2023-05-03T09:58:26.456Z,102204.09
2023-05-03T10:00:52.884Z,102202.22
2023-05-03T10:03:19.550Z,102206.59
2023-05-03T10:05:45.926Z,102204.91
2023-05-03T10:08:14.230Z,102197.69
2023-05-03T10:10:40.861Z,102204.91
2023-05-03T10:13:07.312Z,102202.22
2023-05-03T10:15:34.143Z,102204.91
2023-05-03T10:18:00.715Z,102193.13
2023-05-03T10:20:27.331Z,102202.22
2023-05-03T10:22:53.702Z,102196.84
2023-05-03T10:25:20.375Z,102187.09
2023-05-03T10:27:46.727Z,102194.13
2023-05-03T10:30:13.595Z,102188.75
2023-05-03T10:32:40.323Z,102194.97
2023-05-03T10:35:07.036Z,102187.09
2023-05-03T10:37:33.595Z,102188.75
2023-05-03T10:39:59.905Z,102186.28
2023-05-03T10:42:26.418Z,102182.56
2023-05-03T10:44:52.944Z,102186.06
2023-05-03T10:47:19.391Z,102175.28
2023-05-03T10:49:45.810Z,102177.16
2023-05-03T10:52:12.502Z,102175.50
2023-05-03T10:54:38.916Z,102176.31
2023-05-03T10:57:05.396Z,102176.31
2023-05-03T10:59:32.019Z,102180.69
2023-05-03T11:01:58.445Z,102174.47
2023-05-03T11:04:25.076Z,102177.97
2023-05-03T11:06:51.953Z,102170.94
2023-05-03T11:09:18.625Z,102167.22
2023-05-03T11:11:45.033Z,102172.59
2023-05-03T11:14:11.710Z,102167.22
2023-05-03T11:16:38.423Z,102173.44
2023-05-03T11:19:05.057Z,102177.16
2023-05-03T11:21:31.537Z,102176.53
2023-05-03T11:23:57.936Z,102163.91
2023-05-03T11:26:24.250Z,102163.06
2023-05-03T11:28:50.583Z,102162.06
2023-05-03T11:31:16.933Z,102171.97
2023-05-03T11:33:43.466Z,102173.84
2023-05-03T11:36:10.059Z,102160.59
2023-05-03T11:38:36.397Z,102172.16
2023-05-03T11:41:02.914Z,102167.63
2023-05-03T11:43:32.029Z,102163.06
2023-05-03T11:45:58.696Z,102161.41
2023-05-03T11:48:25.148Z,102163.91
2023-05-03T11:50:51.833Z,102163.91
2023-05-03T11:53:18.773Z,102157.66
2023-05-03T11:55:45.460Z,102161.41
2023-05-03T11:58:11.858Z,102158.72
2023-05-03T12:00:38.486Z,102157.91
2023-05-03T12:03:05.435Z,102152.50
2023-05-03T12:05:32.235Z,102156.88
2023-05-03T12:07:59.826Z,102156.03
2023-05-03T12:10:29.778Z,102154.38
2023-05-03T12:13:00.246Z,102161.59
2023-05-03T12:15:27.619Z,102153.72
2023-05-03T12:17:54.984Z,102152.72
2023-05-03T12:22:52.484Z,102151.88
2023-05-03T12:25:20.878Z,102152.72
2023-05-03T12:27:55.996Z,102153.53
2023-05-03T12:30:34.021Z,102151.03
2023-05-03T12:33:03.678Z,102150.81
2023-05-03T12:35:33.511Z,102151.66
2023-05-03T12:38:03.050Z,102143.97
2023-05-03T12:40:34.350Z,102148.34
2023-05-03T12:43:01.301Z,102143.59
2023-05-03T12:45:28.496Z,102138.22
2023-05-03T12:47:55.336Z,102133.22
2023-05-03T12:50:24.820Z,102131.16
2023-05-03T12:52:53.100Z,102139.00
2023-05-03T12:55:25.015Z,102127.00
2023-05-03T12:58:13.391Z,102128.63
2023-05-03T13:00:45.550Z,102123.06
2023-05-03T13:03:21.367Z,102120.75
2023-05-03T13:05:48.788Z,102117.69
2023-05-03T13:08:21.154Z,102119.75
2023-05-03T13:10:48.728Z,102123.94
2023-05-03T13:13:15.211Z,102113.78
2023-05-03T13:15:41.515Z,102118.34
2023-05-03T13:18:08.174Z,102114.00
2023-05-03T13:20:35.032Z,102111.50
2023-05-03T13:23:01.902Z,102112.34
2023-05-03T13:25:28.288Z,102112.97
2023-05-03T13:27:54.729Z,102102.00
2023-05-03T13:30:21.173Z,102100.53
2023-05-03T13:32:47.952Z,102101.59
2023-05-03T13:35:14.413Z,102096.81
2023-05-03T13:37:41.040Z,102101.84
2023-05-03T13:40:07.649Z,102100.59
2023-05-03T13:42:34.146Z,102097.91
2023-05-03T13:45:00.773Z,102092.31
2023-05-03T13:47:33.033Z,102085.69
2023-05-03T13:50:11.250Z,102088.19
2023-05-03T13:52:39.073Z,102082.59
2023-05-03T13:55:05.515Z,102070.78
2023-05-03T13:57:32.124Z,102069.13
2023-05-03T13:59:58.532Z,102070.97
2023-05-03T14:02:25.331Z,102070.97
2023-05-03T14:04:51.778Z,102068.28
2023-05-03T14:07:18.454Z,102072.03
2023-05-03T14:09:44.847Z,102071.19
2023-05-03T14:12:11.609Z,102073.25
2023-05-03T14:14:38.243Z,102065.38
2023-05-03T14:17:04.835Z,102062.88
2023-05-03T14:19:32.444Z,102068.28
2023-05-03T14:21:58.887Z,102062.28
2023-05-03T14:24:25.239Z,102058.75
2023-05-03T14:26:51.575Z,102060.59
2023-05-03T14:29:17.975Z,102058.75
2023-05-03T14:31:44.394Z,102056.25
2023-05-03T14:34:11.033Z,102057.09
2023-05-03T14:36:37.474Z,102063.47
2023-05-03T14:39:05.716Z,102052.94
2023-05-03T14:41:32.197Z,102056.44
2023-05-03T14:43:58.681Z,102059.34
2023-05-03T14:46:25.456Z,102054.78
2023-05-03T14:48:51.952Z,102051.25
2023-05-03T14:51:18.598Z,102050.25
2023-05-03T14:53:44.993Z,102053.13
2023-05-03T14:56:11.557Z,102043.41
2023-05-03T14:58:38.281Z,102046.91
2023-05-03T15:01:05.081Z,102040.91
2023-05-03T15:03:31.472Z,102043.41
2023-05-03T15:05:57.931Z,102047.09
2023-05-03T15:08:24.752Z,102046.28
2023-05-03T15:10:51.113Z,102050.84
2023-05-03T15:13:17.834Z,102045.47
2023-05-03T15:15:44.374Z,102050.22
2023-05-03T15:18:11.615Z,102047.53
2023-05-03T15:20:38.073Z,102046.69
2023-05-03T15:23:04.429Z,102044.84
2023-05-03T15:25:30.844Z,102043.81
2023-05-03T15:27:57.248Z,102043.16
2023-05-03T15:30:23.589Z,102039.47
2023-05-03T15:32:50.054Z,102044.84
2023-05-03T15:35:16.617Z,102039.47
2023-05-03T15:37:42.957Z,102035.06
2023-05-03T15:40:09.393Z,102041.91
2023-05-03T15:42:37.364Z,102033.03
2023-05-03T15:45:03.983Z,102037.38
2023-05-03T15:47:30.336Z,102038.41
2023-05-03T15:49:56.701Z,102031.16
2023-05-03T15:52:23.238Z,102023.28
2023-05-03T15:54:49.676Z,102020.38
2023-05-03T15:57:16.138Z,102019.38
2023-05-03T15:59:43.027Z,102034.69
2023-05-03T16:02:09.526Z,102017.69
2023-05-03T16:04:36.061Z,102018.53
2023-05-03T16:07:02.438Z,102012.28
2023-05-03T16:09:28.822Z,102014.78
2023-05-03T16:11:55.281Z,102015.81
2023-05-03T16:14:21.651Z,102013.13
2023-05-03T16:16:48.605Z,102006.72
2023-05-03T16:19:17.009Z,102009.41
2023-05-03T16:21:43.458Z,102011.28
2023-05-03T16:24:09.828Z,102004.00
2023-05-03T16:26:36.596Z,102008.38
2023-05-03T16:29:02.928Z,102006.50
2023-05-03T16:31:29.329Z,102003.00
2023-05-03T16:33:55.993Z,102005.69
2023-05-03T16:36:22.488Z,102005.69
2023-05-03T16:38:49.468Z,102006.50
2023-05-03T16:41:15.922Z,102005.47
2023-05-03T16:43:42.238Z,101996.56
2023-05-03T16:46:08.588Z,101991.19
2023-05-03T16:48:35.425Z,102001.13
2023-05-03T16:51:01.751Z,102003.81
2023-05-03T16:53:28.192Z,101994.09
2023-05-03T16:55:54.547Z,101997.63
2023-05-03T16:58:21.173Z,101987.84
2023-05-03T17:00:47.843Z,101998.63
2023-05-03T17:03:14.297Z,101997.63
2023-05-03T17:05:41.445Z,101990.53
2023-05-03T17:08:08.016Z,101990.53
2023-05-03T17:10:34.443Z,101992.44
2023-05-03T17:13:00.843Z,101991.59
2023-05-03T17:15:27.969Z,101991.59
2023-05-03T17:17:56.078Z,101988.06
2023-05-03T17:20:22.412Z,101995.13
2023-05-03T17:22:49.598Z,101993.44
2023-05-03T17:25:16.064Z,101993.44
2023-05-03T17:27:42.751Z,101986.19
2023-05-03T17:30:09.358Z,101991.59
2023-05-03T17:32:35.735Z,101990.75
2023-05-03T17:35:02.367Z,101989.94
2023-05-03T17:37:29.122Z,101994.28
2023-05-03T17:39:55.599Z,101986.59
2023-05-03T17:42:22.077Z,101995.31
2023-05-03T17:44:48.669Z,101989.94
2023-05-03T17:47:15.449Z,101991.78
2023-05-03T17:49:41.999Z,101995.53
2023-05-03T17:52:08.370Z,102000.72
2023-05-03T17:54:34.895Z,102000.72
2023-05-03T17:57:01.542Z,101992.81
2023-05-03T17:59:27.906Z,101995.53
2023-05-03T18:01:54.556Z,101994.47
2023-05-03T18:04:21.101Z,101999.06
2023-05-03T18:06:47.506Z,101999.88
2023-05-03T18:09:13.844Z,101994.47
2023-05-03T18:11:40.463Z,101996.38
2023-05-03T18:14:07.191Z,102003.41
2023-05-03T18:16:33.624Z,102003.41
2023-05-03T18:19:00.012Z,102006.09
2023-05-03T18:21:26.660Z,102003.59
2023-05-03T18:23:53.382Z,102003.41
2023-05-03T18:26:20.055Z,102013.53
2023-05-03T18:28:46.829Z,102002.75
2023-05-03T18:31:13.218Z,102017.69
2023-05-03T18:33:41.080Z,102016.88
2023-05-03T18:36:08.054Z,102012.53
2023-05-03T18:38:34.783Z,102011.69
2023-05-03T18:41:01.207Z,102015.22
2023-05-03T18:43:27.552Z,102012.53
2023-05-03T18:45:53.874Z,102024.09
2023-05-03T18:48:20.641Z,102028.44
2023-05-03T18:50:47.323Z,102022.25
2023-05-03T18:53:23.548Z,102024.09
2023-05-03T18:55:49.886Z,102024.94
2023-05-03T18:58:16.290Z,102030.34
2023-05-03T19:00:43.175Z,102031.38
2023-05-03T19:03:09.593Z,102028.44
2023-05-03T19:05:36.256Z,102032.19
2023-05-03T19:08:02.682Z,102035.72
2023-05-03T19:10:29.116Z,102038.41
2023-05-03T19:12:55.487Z,102039.22
2023-05-03T19:15:21.895Z,102034.69
2023-05-03T19:17:48.316Z,102033.03
2023-05-03T19:20:14.702Z,102037.38
2023-05-03T19:22:41.220Z,102034.69
2023-05-03T19:25:07.649Z,102025.75
2023-05-03T19:27:34.095Z,102037.38
2023-05-03T19:30:00.497Z,102036.34
2023-05-03T19:32:27.361Z,102037.38
2023-05-03T19:34:54.150Z,102026.59
2023-05-03T19:37:20.489Z,102035.72
2023-05-03T19:39:47.254Z,102039.03
2023-05-03T19:42:13.632Z,102040.06
2023-05-03T19:44:41.732Z,102042.56
2023-05-03T19:47:08.369Z,102040.06
2023-05-03T19:49:34.861Z,102046.28
2023-05-03T19:52:02.213Z,102041.72
2023-05-03T19:54:28.580Z,102038.22
2023-05-03T19:56:55.304Z,102040.91
2023-05-03T19:59:21.625Z,102047.94
2023-05-03T20:01:48.108Z,102038.22
2023-05-03T20:04:14.544Z,102038.22
2023-05-03T20:06:41.049Z,102037.19
2023-05-03T20:09:07.452Z,102033.84
2023-05-03T20:11:33.876Z,102034.69
2023-05-03T20:14:00.339Z,102029.28
2023-05-03T20:16:27.019Z,102029.28
2023-05-03T20:18:53.458Z,102031.16
2023-05-03T20:21:19.852Z,102034.88
2023-05-03T20:23:46.916Z,102035.72
2023-05-03T20:26:13.214Z,102033.03
2023-05-03T20:28:39.551Z,102033.03
2023-05-03T20:31:05.856Z,102033.03
2023-05-03T20:33:32.388Z,102030.72
2023-05-03T20:35:59.064Z,102033.44
2023-05-03T20:38:25.462Z,102027.00
2023-05-03T20:40:51.800Z,102027.00
2023-05-03T20:43:18.170Z,102028.88
2023-05-03T20:45:44.927Z,102033.44
2023-05-03T20:48:11.426Z,102029.69
2023-05-03T20:50:38.030Z,102028.03
2023-05-03T20:53:04.786Z,102031.56
2023-05-03T20:55:31.428Z,102018.31
2023-05-03T20:57:57.878Z,102028.03
2023-05-03T21:00:24.317Z,102029.91
2023-05-03T21:02:50.711Z,102036.13
2023-05-03T21:05:17.510Z,102033.44
2023-05-03T21:07:46.099Z,102027.22
2023-05-03T21:10:12.589Z,102035.06
2023-05-03T21:12:39.105Z,102030.72
2023-05-03T21:15:05.806Z,102028.03
2023-05-03T21:17:32.528Z,102028.88
2023-05-03T21:19:59.385Z,102026.19
2023-05-03T21:22:25.754Z,102029.06
2023-05-03T21:24:52.381Z,102023.69
2023-05-03T21:27:18.745Z,102015.63
2023-05-03T21:29:45.410Z,102017.47
2023-05-03T21:32:21.617Z,102021.84
2023-05-03T21:34:48.005Z,102022.03
2023-05-03T21:37:14.382Z,102027.22
2023-05-03T21:39:40.728Z,102012.91
2023-05-03T21:42:07.219Z,102013.97
2023-05-03T21:44:33.661Z,102013.97
2023-05-03T21:47:00.679Z,102018.31
2023-05-03T21:49:27.579Z,102014.78
2023-05-03T21:51:53.962Z,102012.06
2023-05-03T21:54:20.452Z,102014.78
2023-05-03T21:56:46.769Z,102023.69
2023-05-03T21:59:13.374Z,102016.66
2023-05-03T22:01:40.139Z,102011.28
2023-05-03T22:04:07.169Z,102016.47
2023-05-03T22:06:33.581Z,102016.66
2023-05-03T22:09:00.164Z,102015.81
2023-05-03T22:11:36.387Z,102022.03
2023-05-03T22:14:07.549Z,102023.06
2023-05-03T22:16:44.590Z,102023.91
2023-05-03T22:19:11.797Z,102025.75
2023-05-03T22:21:38.182Z,102024.94
2023-05-03T22:24:04.558Z,102022.25
2023-05-03T22:26:31.298Z,102021.41
2023-05-03T22:28:57.753Z,102019.56
2023-05-03T22:31:24.264Z,102018.91
2023-05-03T22:33:50.676Z,102010.63
2023-05-03T22:36:17.137Z,102010.63
2023-05-03T22:38:43.685Z,102016.22
2023-05-03T22:41:10.332Z,102011.47
2023-05-03T22:43:36.728Z,102012.50
2023-05-03T22:46:03.169Z,102008.13
2023-05-03T22:48:29.740Z,102009.81
2023-05-03T22:50:56.256Z,102001.94
2023-05-03T22:53:24.196Z,102005.25
2023-05-03T22:55:50.951Z,102007.31
2023-05-03T22:58:17.400Z,102008.97
2023-05-03T23:00:44.548Z,102015.41
2023-05-03T23:03:11.217Z,102012.06
2023-05-03T23:05:39.138Z,102004.00
2023-05-03T23:08:05.960Z,102012.91
2023-05-03T23:10:32.237Z,102012.91
2023-05-03T23:12:58.724Z,102013.09
2023-05-03T23:15:25.114Z,102004.00
2023-05-03T23:17:51.538Z,102008.56
2023-05-03T23:20:18.168Z,102002.34
2023-05-03T23:22:44.491Z,102008.75
2023-05-03T23:25:10.852Z,102003.38
2023-05-03T23:27:37.369Z,102003.38
2023-05-03T23:30:04.694Z,101998.81
2023-05-03T23:32:31.652Z,101994.47
2023-05-03T23:34:58.588Z,102007.09
2023-05-03T23:37:27.489Z,101991.75
2023-05-03T23:39:54.016Z,101989.91
2023-05-03T23:42:20.355Z,101978.31
2023-05-03T23:44:54.745Z,101980.38
2023-05-03T23:47:21.978Z,101983.88
2023-05-03T23:49:48.315Z,101979.34
2023-05-03T23:52:14.777Z,101979.34
2023-05-03T23:54:41.093Z,101979.94
2023-05-03T23:57:07.594Z,101980.78
2023-05-03T23:59:34.168Z,101980.19
